sensor_id;sensor_type;location;lat;lon;timestamp;P1;durP1;ratioP1;P2;durP2;ratioP2
17818;SDS011;9034;50.284;19.310;2023-02-17T00:00:56;94.32;;;36.25;;
17818;SDS011;9034;50.284;19.310;2023-02-17T00:01:59;97.78;;;38.47;;
17818;SDS011;9034;50.284;19.310;2023-02-17T00:03:04;105.03;;;39.92;;
17818;SDS011;9034;50.284;19.310;2023-02-17T00:04:06;99.57;;;37.72;;
17818;SDS011;9034;50.284;19.310;2023-02-17T00:05:09;104.45;;;40.17;;
17818;SDS011;9034;50.284;19.310;2023-02-17T00:06:11;106.85;;;39.03;;
17818;SDS011;9034;50.284;19.310;2023-02-17T00:07:14;105.60;;;40.83;;
17818;SDS011;9034;50.284;19.310;2023-02-17T00:08:16;106.43;;;41.38;;
17818;SDS011;9034;50.284;19.310;2023-02-17T00:09:19;118.40;;;42.38;;
17818;SDS011;9034;50.284;19.310;2023-02-17T00:10:22;124.70;;;43.40;;
17818;SDS011;9034;50.284;19.310;2023-02-17T00:11:25;114.82;;;43.30;;
17818;SDS011;9034;50.284;19.310;2023-02-17T00:12:28;106.80;;;43.08;;
17818;SDS011;9034;50.284;19.310;2023-02-17T00:13:31;102.32;;;38.60;;
17818;SDS011;9034;50.284;19.310;2023-02-17T00:14:34;105.05;;;41.35;;
17818;SDS011;9034;50.284;19.310;2023-02-17T00:15:37;114.35;;;43.78;;
17818;SDS011;9034;50.284;19.310;2023-02-17T00:16:39;104.20;;;39.95;;
17818;SDS011;9034;50.284;19.310;2023-02-17T00:17:42;104.53;;;41.75;;
17818;SDS011;9034;50.284;19.310;2023-02-17T00:18:46;105.00;;;41.33;;
17818;SDS011;9034;50.284;19.310;2023-02-17T00:19:52;99.75;;;42.88;;
17818;SDS011;9034;50.284;19.310;2023-02-17T00:20:54;108.80;;;42.75;;
17818;SDS011;9034;50.284;19.310;2023-02-17T00:21:57;99.57;;;40.92;;
17818;SDS011;9034;50.284;19.310;2023-02-17T00:23:00;105.70;;;41.50;;
17818;SDS011;9034;50.284;19.310;2023-02-17T00:24:04;105.13;;;41.50;;
17818;SDS011;9034;50.284;19.310;2023-02-17T00:25:08;114.20;;;46.58;;
17818;SDS011;9034;50.284;19.310;2023-02-17T00:26:10;104.93;;;43.22;;
17818;SDS011;9034;50.284;19.310;2023-02-17T00:27:14;96.25;;;43.00;;
17818;SDS011;9034;50.284;19.310;2023-02-17T00:28:16;94.32;;;39.38;;
17818;SDS011;9034;50.284;19.310;2023-02-17T00:29:19;112.93;;;40.72;;
17818;SDS011;9034;50.284;19.310;2023-02-17T00:30:22;110.60;;;42.42;;
17818;SDS011;9034;50.284;19.310;2023-02-17T00:31:26;108.88;;;42.45;;
17818;SDS011;9034;50.284;19.310;2023-02-17T00:32:28;113.07;;;43.33;;
17818;SDS011;9034;50.284;19.310;2023-02-17T00:33:32;100.28;;;39.22;;
17818;SDS011;9034;50.284;19.310;2023-02-17T00:34:35;109.35;;;43.60;;
17818;SDS011;9034;50.284;19.310;2023-02-17T00:35:39;112.68;;;44.72;;
17818;SDS011;9034;50.284;19.310;2023-02-17T00:36:42;114.00;;;43.75;;
17818;SDS011;9034;50.284;19.310;2023-02-17T00:37:45;125.15;;;44.97;;
17818;SDS011;9034;50.284;19.310;2023-02-17T00:38:47;122.80;;;47.38;;
17818;SDS011;9034;50.284;19.310;2023-02-17T00:39:51;118.40;;;46.30;;
17818;SDS011;9034;50.284;19.310;2023-02-17T00:40:53;122.50;;;50.42;;
17818;SDS011;9034;50.284;19.310;2023-02-17T00:41:57;130.35;;;50.47;;
17818;SDS011;9034;50.284;19.310;2023-02-17T00:43:02;125.57;;;49.97;;
17818;SDS011;9034;50.284;19.310;2023-02-17T00:44:05;118.47;;;49.33;;
17818;SDS011;9034;50.284;19.310;2023-02-17T00:45:08;124.28;;;50.45;;
17818;SDS011;9034;50.284;19.310;2023-02-17T00:46:11;126.97;;;51.28;;
17818;SDS011;9034;50.284;19.310;2023-02-17T00:47:14;139.85;;;55.60;;
17818;SDS011;9034;50.284;19.310;2023-02-17T00:48:16;140.35;;;52.80;;
17818;SDS011;9034;50.284;19.310;2023-02-17T00:49:20;132.13;;;54.42;;
17818;SDS011;9034;50.284;19.310;2023-02-17T00:50:24;125.90;;;52.63;;
17818;SDS011;9034;50.284;19.310;2023-02-17T00:51:27;137.02;;;54.03;;
17818;SDS011;9034;50.284;19.310;2023-02-17T00:52:30;126.72;;;52.22;;
17818;SDS011;9034;50.284;19.310;2023-02-17T00:53:33;135.75;;;52.00;;
17818;SDS011;9034;50.284;19.310;2023-02-17T00:54:35;135.77;;;52.40;;
17818;SDS011;9034;50.284;19.310;2023-02-17T00:55:39;144.80;;;55.63;;
17818;SDS011;9034;50.284;19.310;2023-02-17T00:56:42;147.82;;;56.17;;
17818;SDS011;9034;50.284;19.310;2023-02-17T00:57:45;153.35;;;56.28;;
17818;SDS011;9034;50.284;19.310;2023-02-17T00:58:47;136.00;;;54.25;;
17818;SDS011;9034;50.284;19.310;2023-02-17T00:59:50;132.95;;;50.88;;
17818;SDS011;9034;50.284;19.310;2023-02-17T01:00:53;128.82;;;53.03;;
17818;SDS011;9034;50.284;19.310;2023-02-17T01:01:58;134.80;;;52.63;;
17818;SDS011;9034;50.284;19.310;2023-02-17T01:03:00;123.22;;;52.25;;
17818;SDS011;9034;50.284;19.310;2023-02-17T01:04:03;141.63;;;52.53;;
17818;SDS011;9034;50.284;19.310;2023-02-17T01:05:06;130.07;;;50.67;;
17818;SDS011;9034;50.284;19.310;2023-02-17T01:06:15;131.35;;;51.55;;
17818;SDS011;9034;50.284;19.310;2023-02-17T01:07:19;138.27;;;54.83;;
17818;SDS011;9034;50.284;19.310;2023-02-17T01:08:22;130.35;;;53.05;;
17818;SDS011;9034;50.284;19.310;2023-02-17T01:09:25;136.57;;;53.63;;
17818;SDS011;9034;50.284;19.310;2023-02-17T01:10:28;121.53;;;49.53;;
17818;SDS011;9034;50.284;19.310;2023-02-17T01:11:31;116.63;;;48.88;;
17818;SDS011;9034;50.284;19.310;2023-02-17T01:12:36;129.32;;;50.38;;
17818;SDS011;9034;50.284;19.310;2023-02-17T01:13:38;128.65;;;48.45;;
17818;SDS011;9034;50.284;19.310;2023-02-17T01:14:41;123.93;;;50.95;;
17818;SDS011;9034;50.284;19.310;2023-02-17T01:15:46;115.13;;;47.67;;
17818;SDS011;9034;50.284;19.310;2023-02-17T01:16:49;142.60;;;57.72;;
17818;SDS011;9034;50.284;19.310;2023-02-17T01:17:54;144.05;;;56.72;;
17818;SDS011;9034;50.284;19.310;2023-02-17T01:18:56;138.82;;;53.70;;
17818;SDS011;9034;50.284;19.310;2023-02-17T01:19:59;148.60;;;57.47;;
17818;SDS011;9034;50.284;19.310;2023-02-17T01:21:02;144.27;;;56.88;;
17818;SDS011;9034;50.284;19.310;2023-02-17T01:22:09;145.38;;;58.75;;
17818;SDS011;9034;50.284;19.310;2023-02-17T01:23:13;130.30;;;52.30;;
17818;SDS011;9034;50.284;19.310;2023-02-17T01:24:15;121.05;;;48.90;;
17818;SDS011;9034;50.284;19.310;2023-02-17T01:25:18;118.45;;;46.05;;
17818;SDS011;9034;50.284;19.310;2023-02-17T01:26:22;121.82;;;47.55;;
17818;SDS011;9034;50.284;19.310;2023-02-17T01:27:27;116.82;;;47.88;;
17818;SDS011;9034;50.284;19.310;2023-02-17T01:28:29;116.97;;;47.28;;
17818;SDS011;9034;50.284;19.310;2023-02-17T01:29:32;126.57;;;48.03;;
17818;SDS011;9034;50.284;19.310;2023-02-17T01:30:37;137.95;;;49.85;;
17818;SDS011;9034;50.284;19.310;2023-02-17T01:31:40;115.00;;;49.38;;
17818;SDS011;9034;50.284;19.310;2023-02-17T01:32:45;121.25;;;49.35;;
17818;SDS011;9034;50.284;19.310;2023-02-17T01:33:48;122.63;;;51.22;;
17818;SDS011;9034;50.284;19.310;2023-02-17T01:34:50;125.45;;;51.50;;
17818;SDS011;9034;50.284;19.310;2023-02-17T01:35:54;125.30;;;52.45;;
17818;SDS011;9034;50.284;19.310;2023-02-17T01:36:56;123.13;;;50.90;;
17818;SDS011;9034;50.284;19.310;2023-02-17T01:38:00;128.43;;;54.17;;
17818;SDS011;9034;50.284;19.310;2023-02-17T01:39:02;136.45;;;50.42;;
17818;SDS011;9034;50.284;19.310;2023-02-17T01:40:07;126.30;;;51.63;;
17818;SDS011;9034;50.284;19.310;2023-02-17T01:41:10;119.60;;;49.85;;
17818;SDS011;9034;50.284;19.310;2023-02-17T01:42:14;116.97;;;50.20;;
17818;SDS011;9034;50.284;19.310;2023-02-17T01:43:16;119.43;;;49.92;;
17818;SDS011;9034;50.284;19.310;2023-02-17T01:44:20;123.63;;;49.65;;
17818;SDS011;9034;50.284;19.310;2023-02-17T01:46:47;119.30;;;50.17;;
17818;SDS011;9034;50.284;19.310;2023-02-17T01:47:50;117.22;;;48.35;;
17818;SDS011;9034;50.284;19.310;2023-02-17T01:48:56;114.15;;;50.15;;
17818;SDS011;9034;50.284;19.310;2023-02-17T01:49:58;130.07;;;52.65;;
17818;SDS011;9034;50.284;19.310;2023-02-17T01:51:02;120.75;;;52.35;;
17818;SDS011;9034;50.284;19.310;2023-02-17T01:52:08;110.68;;;49.97;;
17818;SDS011;9034;50.284;19.310;2023-02-17T01:53:16;119.57;;;48.42;;
17818;SDS011;9034;50.284;19.310;2023-02-17T01:54:21;113.63;;;48.28;;
17818;SDS011;9034;50.284;19.310;2023-02-17T01:55:27;122.45;;;48.78;;
17818;SDS011;9034;50.284;19.310;2023-02-17T01:56:30;110.07;;;45.55;;
17818;SDS011;9034;50.284;19.310;2023-02-17T01:57:35;117.60;;;49.40;;
17818;SDS011;9034;50.284;19.310;2023-02-17T01:58:40;111.20;;;48.30;;
17818;SDS011;9034;50.284;19.310;2023-02-17T01:59:45;116.35;;;47.85;;
17818;SDS011;9034;50.284;19.310;2023-02-17T02:00:47;111.13;;;48.30;;
17818;SDS011;9034;50.284;19.310;2023-02-17T02:01:52;108.95;;;47.92;;
17818;SDS011;9034;50.284;19.310;2023-02-17T02:02:56;118.75;;;49.65;;
17818;SDS011;9034;50.284;19.310;2023-02-17T02:04:00;114.65;;;45.63;;
17818;SDS011;9034;50.284;19.310;2023-02-17T02:05:04;108.53;;;46.95;;
17818;SDS011;9034;50.284;19.310;2023-02-17T02:06:09;117.05;;;49.80;;
17818;SDS011;9034;50.284;19.310;2023-02-17T02:07:15;123.53;;;46.97;;
17818;SDS011;9034;50.284;19.310;2023-02-17T02:08:21;118.88;;;48.55;;
17818;SDS011;9034;50.284;19.310;2023-02-17T02:09:24;115.80;;;48.42;;
17818;SDS011;9034;50.284;19.310;2023-02-17T02:10:31;117.35;;;48.40;;
17818;SDS011;9034;50.284;19.310;2023-02-17T02:11:34;121.72;;;48.90;;
17818;SDS011;9034;50.284;19.310;2023-02-17T02:12:39;130.10;;;50.83;;
17818;SDS011;9034;50.284;19.310;2023-02-17T02:13:42;120.55;;;49.72;;
17818;SDS011;9034;50.284;19.310;2023-02-17T02:14:45;119.97;;;47.45;;
17818;SDS011;9034;50.284;19.310;2023-02-17T02:15:54;108.63;;;46.63;;
17818;SDS011;9034;50.284;19.310;2023-02-17T02:17:02;119.93;;;46.28;;
17818;SDS011;9034;50.284;19.310;2023-02-17T02:18:12;132.55;;;48.38;;
17818;SDS011;9034;50.284;19.310;2023-02-17T02:19:27;118.22;;;45.75;;
17818;SDS011;9034;50.284;19.310;2023-02-17T02:22:17;115.60;;;49.15;;
17818;SDS011;9034;50.284;19.310;2023-02-17T02:23:31;113.15;;;45.97;;
17818;SDS011;9034;50.284;19.310;2023-02-17T02:24:53;106.95;;;44.83;;
17818;SDS011;9034;50.284;19.310;2023-02-17T02:26:09;117.28;;;46.97;;
17818;SDS011;9034;50.284;19.310;2023-02-17T02:27:25;112.00;;;48.17;;
17818;SDS011;9034;50.284;19.310;2023-02-17T02:28:36;112.28;;;49.03;;
17818;SDS011;9034;50.284;19.310;2023-02-17T02:31:28;111.45;;;47.45;;
17818;SDS011;9034;50.284;19.310;2023-02-17T02:32:44;113.95;;;48.83;;
17818;SDS011;9034;50.284;19.310;2023-02-17T02:33:51;110.60;;;47.22;;
17818;SDS011;9034;50.284;19.310;2023-02-17T02:34:56;122.28;;;49.70;;
17818;SDS011;9034;50.284;19.310;2023-02-17T02:36:04;119.85;;;48.58;;
17818;SDS011;9034;50.284;19.310;2023-02-17T02:37:13;112.22;;;48.42;;
17818;SDS011;9034;50.284;19.310;2023-02-17T02:38:19;126.03;;;50.67;;
17818;SDS011;9034;50.284;19.310;2023-02-17T02:39:27;113.25;;;49.53;;
17818;SDS011;9034;50.284;19.310;2023-02-17T02:40:31;127.13;;;50.30;;
17818;SDS011;9034;50.284;19.310;2023-02-17T02:41:36;111.47;;;47.75;;
17818;SDS011;9034;50.284;19.310;2023-02-17T02:42:41;113.75;;;48.20;;
17818;SDS011;9034;50.284;19.310;2023-02-17T02:43:44;104.55;;;45.85;;
17818;SDS011;9034;50.284;19.310;2023-02-17T02:44:49;116.53;;;47.92;;
17818;SDS011;9034;50.284;19.310;2023-02-17T02:45:51;109.88;;;46.83;;
17818;SDS011;9034;50.284;19.310;2023-02-17T02:46:55;113.60;;;47.03;;
17818;SDS011;9034;50.284;19.310;2023-02-17T02:47:59;112.28;;;49.85;;
17818;SDS011;9034;50.284;19.310;2023-02-17T02:49:04;113.03;;;46.13;;
17818;SDS011;9034;50.284;19.310;2023-02-17T02:50:07;120.00;;;45.75;;
17818;SDS011;9034;50.284;19.310;2023-02-17T02:51:16;128.93;;;49.25;;
17818;SDS011;9034;50.284;19.310;2023-02-17T02:52:23;127.55;;;47.60;;
17818;SDS011;9034;50.284;19.310;2023-02-17T02:53:42;130.02;;;47.70;;
17818;SDS011;9034;50.284;19.310;2023-02-17T02:54:51;105.90;;;42.70;;
17818;SDS011;9034;50.284;19.310;2023-02-17T02:56:00;120.53;;;43.88;;
17818;SDS011;9034;50.284;19.310;2023-02-17T02:57:24;107.38;;;41.67;;
17818;SDS011;9034;50.284;19.310;2023-02-17T02:58:42;115.85;;;46.55;;
17818;SDS011;9034;50.284;19.310;2023-02-17T02:59:55;104.60;;;41.97;;
17818;SDS011;9034;50.284;19.310;2023-02-17T03:01:07;108.45;;;42.60;;
17818;SDS011;9034;50.284;19.310;2023-02-17T03:02:17;109.18;;;45.63;;
17818;SDS011;9034;50.284;19.310;2023-02-17T03:03:28;113.97;;;44.60;;
17818;SDS011;9034;50.284;19.310;2023-02-17T03:04:35;95.43;;;39.22;;
17818;SDS011;9034;50.284;19.310;2023-02-17T03:05:41;98.65;;;40.08;;
17818;SDS011;9034;50.284;19.310;2023-02-17T03:06:48;115.45;;;44.45;;
17818;SDS011;9034;50.284;19.310;2023-02-17T03:07:57;104.15;;;42.22;;
17818;SDS011;9034;50.284;19.310;2023-02-17T03:09:02;96.35;;;39.22;;
17818;SDS011;9034;50.284;19.310;2023-02-17T03:10:07;92.25;;;40.35;;
17818;SDS011;9034;50.284;19.310;2023-02-17T03:11:10;100.05;;;42.13;;
17818;SDS011;9034;50.284;19.310;2023-02-17T03:12:13;99.88;;;44.15;;
17818;SDS011;9034;50.284;19.310;2023-02-17T03:13:15;110.60;;;45.00;;
17818;SDS011;9034;50.284;19.310;2023-02-17T03:14:20;97.97;;;41.78;;
17818;SDS011;9034;50.284;19.310;2023-02-17T03:15:25;105.40;;;43.65;;
17818;SDS011;9034;50.284;19.310;2023-02-17T03:16:30;98.70;;;41.63;;
17818;SDS011;9034;50.284;19.310;2023-02-17T03:17:33;100.70;;;40.38;;
17818;SDS011;9034;50.284;19.310;2023-02-17T03:18:38;93.45;;;42.20;;
17818;SDS011;9034;50.284;19.310;2023-02-17T03:19:41;124.18;;;45.25;;
17818;SDS011;9034;50.284;19.310;2023-02-17T03:20:48;103.82;;;44.13;;
17818;SDS011;9034;50.284;19.310;2023-02-17T03:21:54;112.60;;;43.53;;
17818;SDS011;9034;50.284;19.310;2023-02-17T03:22:59;101.43;;;42.88;;
17818;SDS011;9034;50.284;19.310;2023-02-17T03:24:02;101.80;;;40.90;;
17818;SDS011;9034;50.284;19.310;2023-02-17T03:25:06;100.05;;;42.50;;
17818;SDS011;9034;50.284;19.310;2023-02-17T03:26:08;105.15;;;43.08;;
17818;SDS011;9034;50.284;19.310;2023-02-17T03:27:11;109.80;;;44.88;;
17818;SDS011;9034;50.284;19.310;2023-02-17T03:28:13;111.30;;;46.22;;
17818;SDS011;9034;50.284;19.310;2023-02-17T03:29:17;117.72;;;46.97;;
17818;SDS011;9034;50.284;19.310;2023-02-17T03:30:19;115.43;;;44.85;;
17818;SDS011;9034;50.284;19.310;2023-02-17T03:31:22;100.60;;;39.38;;
17818;SDS011;9034;50.284;19.310;2023-02-17T03:32:24;108.13;;;43.65;;
17818;SDS011;9034;50.284;19.310;2023-02-17T03:33:28;110.13;;;43.92;;
17818;SDS011;9034;50.284;19.310;2023-02-17T03:34:31;103.72;;;42.45;;
17818;SDS011;9034;50.284;19.310;2023-02-17T03:35:34;102.30;;;42.33;;
17818;SDS011;9034;50.284;19.310;2023-02-17T03:36:36;120.47;;;45.22;;
17818;SDS011;9034;50.284;19.310;2023-02-17T03:37:39;113.50;;;45.42;;
17818;SDS011;9034;50.284;19.310;2023-02-17T03:38:41;110.55;;;43.88;;
17818;SDS011;9034;50.284;19.310;2023-02-17T03:39:44;108.80;;;42.92;;
17818;SDS011;9034;50.284;19.310;2023-02-17T03:40:47;102.35;;;40.88;;
17818;SDS011;9034;50.284;19.310;2023-02-17T03:41:50;108.65;;;43.55;;
17818;SDS011;9034;50.284;19.310;2023-02-17T03:42:52;99.65;;;42.45;;
17818;SDS011;9034;50.284;19.310;2023-02-17T03:43:56;112.25;;;47.03;;
17818;SDS011;9034;50.284;19.310;2023-02-17T03:44:58;103.28;;;42.90;;
17818;SDS011;9034;50.284;19.310;2023-02-17T03:46:01;101.10;;;43.85;;
17818;SDS011;9034;50.284;19.310;2023-02-17T03:47:03;102.47;;;45.92;;
17818;SDS011;9034;50.284;19.310;2023-02-17T03:48:07;106.38;;;44.70;;
17818;SDS011;9034;50.284;19.310;2023-02-17T03:49:09;109.93;;;47.47;;
17818;SDS011;9034;50.284;19.310;2023-02-17T03:50:15;113.28;;;46.70;;
17818;SDS011;9034;50.284;19.310;2023-02-17T03:51:18;109.80;;;47.47;;
17818;SDS011;9034;50.284;19.310;2023-02-17T03:52:22;116.53;;;47.47;;
17818;SDS011;9034;50.284;19.310;2023-02-17T03:53:24;122.22;;;48.92;;
17818;SDS011;9034;50.284;19.310;2023-02-17T03:54:27;108.18;;;45.10;;
17818;SDS011;9034;50.284;19.310;2023-02-17T03:55:29;85.13;;;42.05;;
17818;SDS011;9034;50.284;19.310;2023-02-17T03:56:32;88.25;;;39.20;;
17818;SDS011;9034;50.284;19.310;2023-02-17T03:57:34;83.38;;;40.10;;
17818;SDS011;9034;50.284;19.310;2023-02-17T03:58:37;84.53;;;40.22;;
17818;SDS011;9034;50.284;19.310;2023-02-17T03:59:40;84.35;;;41.38;;
17818;SDS011;9034;50.284;19.310;2023-02-17T04:00:43;87.65;;;38.90;;
17818;SDS011;9034;50.284;19.310;2023-02-17T04:01:45;90.63;;;42.22;;
17818;SDS011;9034;50.284;19.310;2023-02-17T04:02:48;84.85;;;40.88;;
17818;SDS011;9034;50.284;19.310;2023-02-17T04:03:50;90.05;;;43.35;;
17818;SDS011;9034;50.284;19.310;2023-02-17T04:04:54;84.47;;;40.85;;
17818;SDS011;9034;50.284;19.310;2023-02-17T04:05:57;93.22;;;44.60;;
17818;SDS011;9034;50.284;19.310;2023-02-17T04:07:00;95.32;;;46.83;;
17818;SDS011;9034;50.284;19.310;2023-02-17T04:08:03;90.88;;;40.72;;
17818;SDS011;9034;50.284;19.310;2023-02-17T04:09:07;89.32;;;44.80;;
17818;SDS011;9034;50.284;19.310;2023-02-17T04:10:09;92.88;;;44.88;;
17818;SDS011;9034;50.284;19.310;2023-02-17T04:11:12;92.53;;;46.47;;
17818;SDS011;9034;50.284;19.310;2023-02-17T04:12:15;91.07;;;44.08;;
17818;SDS011;9034;50.284;19.310;2023-02-17T04:13:18;92.32;;;41.70;;
17818;SDS011;9034;50.284;19.310;2023-02-17T04:14:19;79.03;;;42.65;;
17818;SDS011;9034;50.284;19.310;2023-02-17T04:15:23;85.85;;;43.17;;
17818;SDS011;9034;50.284;19.310;2023-02-17T04:16:25;86.50;;;43.38;;
17818;SDS011;9034;50.284;19.310;2023-02-17T04:17:28;80.25;;;42.38;;
17818;SDS011;9034;50.284;19.310;2023-02-17T04:18:30;77.38;;;39.83;;
17818;SDS011;9034;50.284;19.310;2023-02-17T04:19:34;78.07;;;41.63;;
17818;SDS011;9034;50.284;19.310;2023-02-17T04:20:37;83.25;;;42.92;;
17818;SDS011;9034;50.284;19.310;2023-02-17T04:21:40;87.15;;;42.95;;
17818;SDS011;9034;50.284;19.310;2023-02-17T04:22:43;88.90;;;40.75;;
17818;SDS011;9034;50.284;19.310;2023-02-17T04:23:46;91.60;;;45.13;;
17818;SDS011;9034;50.284;19.310;2023-02-17T04:24:50;78.25;;;40.00;;
17818;SDS011;9034;50.284;19.310;2023-02-17T04:25:52;81.10;;;41.38;;
17818;SDS011;9034;50.284;19.310;2023-02-17T04:26:55;70.43;;;38.65;;
17818;SDS011;9034;50.284;19.310;2023-02-17T04:27:58;78.50;;;40.83;;
17818;SDS011;9034;50.284;19.310;2023-02-17T04:29:02;89.55;;;40.40;;
17818;SDS011;9034;50.284;19.310;2023-02-17T04:30:05;75.78;;;39.67;;
17818;SDS011;9034;50.284;19.310;2023-02-17T04:31:08;77.05;;;41.30;;
17818;SDS011;9034;50.284;19.310;2023-02-17T04:32:11;73.20;;;41.38;;
17818;SDS011;9034;50.284;19.310;2023-02-17T04:33:14;82.28;;;41.75;;
17818;SDS011;9034;50.284;19.310;2023-02-17T04:34:17;75.20;;;39.13;;
17818;SDS011;9034;50.284;19.310;2023-02-17T04:35:19;79.35;;;40.72;;
17818;SDS011;9034;50.284;19.310;2023-02-17T04:36:23;70.15;;;38.03;;
17818;SDS011;9034;50.284;19.310;2023-02-17T04:37:28;76.28;;;39.35;;
17818;SDS011;9034;50.284;19.310;2023-02-17T04:38:30;79.63;;;38.67;;
17818;SDS011;9034;50.284;19.310;2023-02-17T04:39:34;76.68;;;39.72;;
17818;SDS011;9034;50.284;19.310;2023-02-17T04:40:36;68.40;;;36.17;;
17818;SDS011;9034;50.284;19.310;2023-02-17T04:41:40;72.47;;;38.33;;
17818;SDS011;9034;50.284;19.310;2023-02-17T04:42:43;70.55;;;37.08;;
17818;SDS011;9034;50.284;19.310;2023-02-17T04:43:45;73.65;;;38.67;;
17818;SDS011;9034;50.284;19.310;2023-02-17T04:44:48;65.80;;;36.67;;
17818;SDS011;9034;50.284;19.310;2023-02-17T04:45:50;67.55;;;35.78;;
17818;SDS011;9034;50.284;19.310;2023-02-17T04:46:54;64.57;;;35.90;;
17818;SDS011;9034;50.284;19.310;2023-02-17T04:47:56;67.10;;;36.40;;
17818;SDS011;9034;50.284;19.310;2023-02-17T04:48:59;59.35;;;33.38;;
17818;SDS011;9034;50.284;19.310;2023-02-17T04:50:01;64.43;;;36.58;;
17818;SDS011;9034;50.284;19.310;2023-02-17T04:51:05;57.13;;;33.30;;
17818;SDS011;9034;50.284;19.310;2023-02-17T04:52:07;61.10;;;34.10;;
17818;SDS011;9034;50.284;19.310;2023-02-17T04:53:12;57.20;;;32.90;;
17818;SDS011;9034;50.284;19.310;2023-02-17T04:54:14;60.97;;;34.13;;
17818;SDS011;9034;50.284;19.310;2023-02-17T04:55:17;55.33;;;32.80;;
17818;SDS011;9034;50.284;19.310;2023-02-17T04:56:20;54.90;;;31.92;;
17818;SDS011;9034;50.284;19.310;2023-02-17T04:57:23;59.70;;;32.95;;
17818;SDS011;9034;50.284;19.310;2023-02-17T04:58:25;61.55;;;32.65;;
17818;SDS011;9034;50.284;19.310;2023-02-17T04:59:29;58.53;;;33.38;;
17818;SDS011;9034;50.284;19.310;2023-02-17T05:00:31;56.58;;;31.10;;
17818;SDS011;9034;50.284;19.310;2023-02-17T05:01:34;57.28;;;32.92;;
17818;SDS011;9034;50.284;19.310;2023-02-17T05:02:36;56.65;;;32.25;;
17818;SDS011;9034;50.284;19.310;2023-02-17T05:03:39;58.42;;;32.85;;
17818;SDS011;9034;50.284;19.310;2023-02-17T05:04:42;59.75;;;34.50;;
17818;SDS011;9034;50.284;19.310;2023-02-17T05:05:46;55.55;;;33.17;;
17818;SDS011;9034;50.284;19.310;2023-02-17T05:06:48;55.67;;;32.42;;
17818;SDS011;9034;50.284;19.310;2023-02-17T05:07:51;57.53;;;31.88;;
17818;SDS011;9034;50.284;19.310;2023-02-17T05:08:55;54.25;;;30.50;;
17818;SDS011;9034;50.284;19.310;2023-02-17T05:09:58;55.88;;;32.30;;
17818;SDS011;9034;50.284;19.310;2023-02-17T05:11:00;53.08;;;31.55;;
17818;SDS011;9034;50.284;19.310;2023-02-17T05:12:04;54.05;;;31.08;;
17818;SDS011;9034;50.284;19.310;2023-02-17T05:13:07;51.63;;;30.58;;
17818;SDS011;9034;50.284;19.310;2023-02-17T05:14:10;49.20;;;29.70;;
17818;SDS011;9034;50.284;19.310;2023-02-17T05:15:12;52.00;;;30.17;;
17818;SDS011;9034;50.284;19.310;2023-02-17T05:16:15;52.35;;;30.10;;
17818;SDS011;9034;50.284;19.310;2023-02-17T05:17:17;55.40;;;32.17;;
17818;SDS011;9034;50.284;19.310;2023-02-17T05:18:21;50.47;;;30.35;;
17818;SDS011;9034;50.284;19.310;2023-02-17T05:19:24;48.80;;;30.42;;
17818;SDS011;9034;50.284;19.310;2023-02-17T05:20:26;53.53;;;30.77;;
17818;SDS011;9034;50.284;19.310;2023-02-17T05:21:29;49.75;;;30.15;;
17818;SDS011;9034;50.284;19.310;2023-02-17T05:22:31;44.65;;;29.55;;
17818;SDS011;9034;50.284;19.310;2023-02-17T05:23:34;45.92;;;28.33;;
17818;SDS011;9034;50.284;19.310;2023-02-17T05:24:43;50.03;;;28.42;;
17818;SDS011;9034;50.284;19.310;2023-02-17T05:25:46;45.42;;;29.33;;
17818;SDS011;9034;50.284;19.310;2023-02-17T05:26:48;47.03;;;28.75;;
17818;SDS011;9034;50.284;19.310;2023-02-17T05:27:51;43.20;;;28.48;;
17818;SDS011;9034;50.284;19.310;2023-02-17T05:28:53;47.35;;;27.88;;
17818;SDS011;9034;50.284;19.310;2023-02-17T05:29:56;44.65;;;27.85;;
17818;SDS011;9034;50.284;19.310;2023-02-17T05:30:59;43.85;;;27.65;;
17818;SDS011;9034;50.284;19.310;2023-02-17T05:32:02;43.13;;;27.55;;
17818;SDS011;9034;50.284;19.310;2023-02-17T05:33:04;45.75;;;28.17;;
17818;SDS011;9034;50.284;19.310;2023-02-17T05:34:26;46.95;;;27.80;;
17818;SDS011;9034;50.284;19.310;2023-02-17T05:35:28;43.15;;;27.73;;
17818;SDS011;9034;50.284;19.310;2023-02-17T05:36:31;44.47;;;27.10;;
17818;SDS011;9034;50.284;19.310;2023-02-17T05:37:33;43.00;;;27.27;;
17818;SDS011;9034;50.284;19.310;2023-02-17T05:38:37;46.78;;;28.08;;
17818;SDS011;9034;50.284;19.310;2023-02-17T05:39:40;42.78;;;26.95;;
17818;SDS011;9034;50.284;19.310;2023-02-17T05:40:45;51.65;;;27.23;;
17818;SDS011;9034;50.284;19.310;2023-02-17T05:41:47;42.53;;;26.10;;
17818;SDS011;9034;50.284;19.310;2023-02-17T05:42:50;42.90;;;26.10;;
17818;SDS011;9034;50.284;19.310;2023-02-17T05:43:52;46.85;;;27.35;;
17818;SDS011;9034;50.284;19.310;2023-02-17T05:44:55;43.30;;;26.88;;
17818;SDS011;9034;50.284;19.310;2023-02-17T05:46:00;41.33;;;26.33;;
17818;SDS011;9034;50.284;19.310;2023-02-17T05:47:04;43.72;;;27.65;;
17818;SDS011;9034;50.284;19.310;2023-02-17T05:48:06;50.00;;;28.77;;
17818;SDS011;9034;50.284;19.310;2023-02-17T05:49:09;44.55;;;28.98;;
17818;SDS011;9034;50.284;19.310;2023-02-17T05:50:11;46.53;;;26.92;;
17818;SDS011;9034;50.284;19.310;2023-02-17T05:51:14;45.22;;;26.98;;
17818;SDS011;9034;50.284;19.310;2023-02-17T05:52:17;42.13;;;27.15;;
17818;SDS011;9034;50.284;19.310;2023-02-17T05:53:21;44.80;;;28.58;;
17818;SDS011;9034;50.284;19.310;2023-02-17T05:54:23;43.60;;;26.90;;
17818;SDS011;9034;50.284;19.310;2023-02-17T05:55:26;42.17;;;25.50;;
17818;SDS011;9034;50.284;19.310;2023-02-17T05:56:30;45.42;;;28.88;;
17818;SDS011;9034;50.284;19.310;2023-02-17T05:57:33;46.67;;;26.85;;
17818;SDS011;9034;50.284;19.310;2023-02-17T05:58:36;44.33;;;28.00;;
17818;SDS011;9034;50.284;19.310;2023-02-17T05:59:38;50.28;;;30.73;;
17818;SDS011;9034;50.284;19.310;2023-02-17T06:00:41;49.45;;;29.27;;
17818;SDS011;9034;50.284;19.310;2023-02-17T06:01:43;43.20;;;26.35;;
17818;SDS011;9034;50.284;19.310;2023-02-17T06:02:47;39.13;;;25.02;;
17818;SDS011;9034;50.284;19.310;2023-02-17T06:03:48;43.42;;;25.38;;
17818;SDS011;9034;50.284;19.310;2023-02-17T06:04:51;43.60;;;26.27;;
17818;SDS011;9034;50.284;19.310;2023-02-17T06:05:54;42.58;;;27.65;;
17818;SDS011;9034;50.284;19.310;2023-02-17T06:06:57;40.55;;;26.13;;
17818;SDS011;9034;50.284;19.310;2023-02-17T06:07:59;42.53;;;24.92;;
17818;SDS011;9034;50.284;19.310;2023-02-17T06:09:02;38.47;;;24.15;;
17818;SDS011;9034;50.284;19.310;2023-02-17T06:10:04;38.03;;;24.67;;
17818;SDS011;9034;50.284;19.310;2023-02-17T06:11:09;47.35;;;27.05;;
17818;SDS011;9034;50.284;19.310;2023-02-17T06:12:12;43.85;;;26.58;;
17818;SDS011;9034;50.284;19.310;2023-02-17T06:13:15;43.13;;;26.25;;
17818;SDS011;9034;50.284;19.310;2023-02-17T06:14:17;39.78;;;25.25;;
17818;SDS011;9034;50.284;19.310;2023-02-17T06:15:21;42.47;;;26.92;;
17818;SDS011;9034;50.284;19.310;2023-02-17T06:16:23;48.45;;;29.33;;